sensor_id;sensor_type;location;lat;lon;timestamp;pressure;altitude;pressure_sealevel;temperature;humidity
70468;BME280;57934;51.532;7.684;2022-12-11T00:01:13;99921.47;;;0.08;92.40
70468;BME280;57934;51.532;7.684;2022-12-11T00:03:39;99926.91;;;0.05;92.38
70468;BME280;57934;51.532;7.684;2022-12-11T00:06:07;99920.09;;;0.04;92.54
70468;BME280;57934;51.532;7.684;2022-12-11T00:08:34;99926.22;;;0.03;92.44
70468;BME280;57934;51.532;7.684;2022-12-11T00:11:00;99919.69;;;0.09;92.49
70468;BME280;57934;51.532;7.684;2022-12-11T00:13:26;99920.91;;;0.05;92.79
70468;BME280;57934;51.532;7.684;2022-12-11T00:15:52;99914.91;;;0.04;92.53
70468;BME280;57934;51.532;7.684;2022-12-11T00:18:18;99913.81;;;0.07;92.69
70468;BME280;57934;51.532;7.684;2022-12-11T00:20:44;99918.44;;;0.03;92.75
70468;BME280;57934;51.532;7.684;2022-12-11T00:23:10;99918.72;;;0.00;92.88
70468;BME280;57934;51.532;7.684;2022-12-11T00:25:41;99920.09;;;0.04;93.07
70468;BME280;57934;51.532;7.684;2022-12-11T00:28:09;99916.41;;;0.07;92.75
70468;BME280;57934;51.532;7.684;2022-12-11T00:30:45;99918.06;;;0.08;92.41
70468;BME280;57934;51.532;7.684;2022-12-11T00:33:12;99924.19;;;0.07;92.70
70468;BME280;57934;51.532;7.684;2022-12-11T00:35:41;99913.94;;;0.05;92.50
70468;BME280;57934;51.532;7.684;2022-12-11T00:38:07;99920.09;;;0.04;92.64
70468;BME280;57934;51.532;7.684;2022-12-11T00:40:35;99916.81;;;0.02;92.53
70468;BME280;57934;51.532;7.684;2022-12-11T00:43:02;99916.41;;;-0.03;92.87
70468;BME280;57934;51.532;7.684;2022-12-11T00:45:28;99924.47;;;0.04;93.11
70468;BME280;57934;51.532;7.684;2022-12-11T00:47:54;99920.63;;;-0.02;92.85
70468;BME280;57934;51.532;7.684;2022-12-11T00:50:20;99921.59;;;-0.03;92.67
70468;BME280;57934;51.532;7.684;2022-12-11T00:52:46;99917.78;;;0.01;93.00
70468;BME280;57934;51.532;7.684;2022-12-11T00:55:12;99918.84;;;-0.02;92.60
70468;BME280;57934;51.532;7.684;2022-12-11T00:57:38;99920.91;;;-0.05;93.19
70468;BME280;57934;51.532;7.684;2022-12-11T01:00:05;99921.16;;;-0.08;93.38
70468;BME280;57934;51.532;7.684;2022-12-11T01:02:33;99921.16;;;-0.08;93.37
70468;BME280;57934;51.532;7.684;2022-12-11T01:04:59;99918.56;;;-0.08;93.81
70468;BME280;57934;51.532;7.684;2022-12-11T01:07:25;99920.75;;;-0.04;93.74
70468;BME280;57934;51.532;7.684;2022-12-11T01:09:51;99923.47;;;-0.05;93.62
70468;BME280;57934;51.532;7.684;2022-12-11T01:12:35;99924.44;;;-0.06;93.71
70468;BME280;57934;51.532;7.684;2022-12-11T01:15:02;99921.16;;;-0.08;93.60
70468;BME280;57934;51.532;7.684;2022-12-11T01:17:28;99926.88;;;-0.14;93.91
70468;BME280;57934;51.532;7.684;2022-12-11T01:19:54;99925.13;;;-0.14;93.98
70468;BME280;57934;51.532;7.684;2022-12-11T01:22:20;99939.66;;;-0.22;94.14
70468;BME280;57934;51.532;7.684;2022-12-11T01:24:46;99933.94;;;-0.26;94.44
70468;BME280;57934;51.532;7.684;2022-12-11T01:27:12;99944.44;;;-0.28;94.80
70468;BME280;57934;51.532;7.684;2022-12-11T01:29:38;99938.56;;;-0.30;94.53
70468;BME280;57934;51.532;7.684;2022-12-11T01:32:04;99939.53;;;-0.31;95.06
70468;BME280;57934;51.532;7.684;2022-12-11T01:34:31;99930.94;;;-0.31;95.08
70468;BME280;57934;51.532;7.684;2022-12-11T01:36:57;99932.00;;;-0.34;95.07
70468;BME280;57934;51.532;7.684;2022-12-11T01:39:23;99942.88;;;-0.40;95.55
70468;BME280;57934;51.532;7.684;2022-12-11T01:41:49;99938.53;;;-0.39;95.89
70468;BME280;57934;51.532;7.684;2022-12-11T01:46:41;99940.75;;;-0.35;96.04
70468;BME280;57934;51.532;7.684;2022-12-11T01:49:10;99930.78;;;-0.30;95.98
70468;BME280;57934;51.532;7.684;2022-12-11T01:51:47;99926.94;;;-0.35;95.64
70468;BME280;57934;51.532;7.684;2022-12-11T01:54:16;99934.72;;;-0.45;96.02
70468;BME280;57934;51.532;7.684;2022-12-11T01:56:45;99926.63;;;-0.52;96.62
70468;BME280;57934;51.532;7.684;2022-12-11T01:59:15;99934.09;;;-0.58;96.41
70468;BME280;57934;51.532;7.684;2022-12-11T02:01:47;99928.13;;;-0.59;96.46
70468;BME280;57934;51.532;7.684;2022-12-11T02:04:16;99923.06;;;-0.60;96.58
70468;BME280;57934;51.532;7.684;2022-12-11T02:06:45;99922.38;;;-0.62;96.91
70468;BME280;57934;51.532;7.684;2022-12-11T02:09:21;99924.56;;;-0.58;97.19
70468;BME280;57934;51.532;7.684;2022-12-11T02:12:22;99922.22;;;-0.61;96.66
70468;BME280;57934;51.532;7.684;2022-12-11T02:18:10;99927.56;;;-0.62;97.06
70468;BME280;57934;51.532;7.684;2022-12-11T02:20:49;99925.78;;;-0.62;97.11
70468;BME280;57934;51.532;7.684;2022-12-11T02:26:24;99921.47;;;-0.52;97.63
70468;BME280;57934;51.532;7.684;2022-12-11T02:28:57;99919.94;;;-0.54;96.97
70468;BME280;57934;51.532;7.684;2022-12-11T02:31:35;99910.41;;;-0.54;97.11
70468;BME280;57934;51.532;7.684;2022-12-11T02:34:16;99912.19;;;-0.54;97.08
70468;BME280;57934;51.532;7.684;2022-12-11T02:36:48;99920.38;;;-0.49;97.08
70468;BME280;57934;51.532;7.684;2022-12-11T02:39:16;99922.03;;;-0.48;97.12
70468;BME280;57934;51.532;7.684;2022-12-11T02:41:47;99918.06;;;-0.52;97.12
70468;BME280;57934;51.532;7.684;2022-12-11T02:44:16;99916.94;;;-0.50;96.87
70468;BME280;57934;51.532;7.684;2022-12-11T02:46:44;99916.44;;;-0.43;96.96
70468;BME280;57934;51.532;7.684;2022-12-11T02:49:11;99917.50;;;-0.46;96.76
70468;BME280;57934;51.532;7.684;2022-12-11T02:51:40;99910.59;;;-0.45;96.77
70468;BME280;57934;51.532;7.684;2022-12-11T02:54:10;99910.19;;;-0.41;96.81
70468;BME280;57934;51.532;7.684;2022-12-11T02:56:43;99914.16;;;-0.37;96.37
70468;BME280;57934;51.532;7.684;2022-12-11T02:59:15;99910.59;;;-0.36;96.82
70468;BME280;57934;51.532;7.684;2022-12-11T03:01:42;99907.34;;;-0.28;96.12
70468;BME280;57934;51.532;7.684;2022-12-11T03:04:08;99903.53;;;-0.34;95.70
70468;BME280;57934;51.532;7.684;2022-12-11T03:06:38;99905.03;;;-0.31;96.04
70468;BME280;57934;51.532;7.684;2022-12-11T03:09:06;99896.72;;;-0.35;95.94
70468;BME280;57934;51.532;7.684;2022-12-11T03:11:32;99893.56;;;-0.29;96.00
70468;BME280;57934;51.532;7.684;2022-12-11T03:13:59;99903.25;;;-0.31;95.86
70468;BME280;57934;51.532;7.684;2022-12-11T03:16:38;99897.94;;;-0.29;95.62
70468;BME280;57934;51.532;7.684;2022-12-11T03:19:31;99903.66;;;-0.26;95.49
70468;BME280;57934;51.532;7.684;2022-12-11T03:22:09;99896.16;;;-0.29;95.49
70468;BME280;57934;51.532;7.684;2022-12-11T03:24:47;99890.16;;;-0.29;95.62
70468;BME280;57934;51.532;7.684;2022-12-11T03:27:35;99892.50;;;-0.26;95.09
70468;BME280;57934;51.532;7.684;2022-12-11T03:32:32;99901.06;;;-0.26;94.80
70468;BME280;57934;51.532;7.684;2022-12-11T03:35:21;99896.19;;;-0.19;95.31
70468;BME280;57934;51.532;7.684;2022-12-11T03:37:50;99889.13;;;-0.17;95.20
70468;BME280;57934;51.532;7.684;2022-12-11T03:40:18;99896.72;;;-0.15;94.88
70468;BME280;57934;51.532;7.684;2022-12-11T03:42:48;99899.19;;;-0.23;94.96
70468;BME280;57934;51.532;7.684;2022-12-11T03:45:17;99896.72;;;-0.25;94.69
70468;BME280;57934;51.532;7.684;2022-12-11T03:47:44;99899.44;;;-0.27;94.95
70468;BME280;57934;51.532;7.684;2022-12-11T03:50:13;99895.63;;;-0.22;95.15
70468;BME280;57934;51.532;7.684;2022-12-11T03:52:42;99890.03;;;-0.18;95.17
70468;BME280;57934;51.532;7.684;2022-12-11T03:55:11;99888.56;;;-0.20;95.21
70468;BME280;57934;51.532;7.684;2022-12-11T03:57:38;99889.78;;;-0.25;95.45
70468;BME280;57934;51.532;7.684;2022-12-11T04:00:06;99886.63;;;-0.28;95.64
70468;BME280;57934;51.532;7.684;2022-12-11T04:02:38;99878.47;;;-0.23;95.25
70468;BME280;57934;51.532;7.684;2022-12-11T04:05:04;99885.28;;;-0.22;95.72
70468;BME280;57934;51.532;7.684;2022-12-11T04:07:30;99888.41;;;-0.19;95.53
70468;BME280;57934;51.532;7.684;2022-12-11T04:09:56;99893.34;;;-0.16;95.54
70468;BME280;57934;51.532;7.684;2022-12-11T04:12:22;99897.16;;;-0.10;95.79
70468;BME280;57934;51.532;7.684;2022-12-11T04:14:48;99887.06;;;-0.13;95.26
70468;BME280;57934;51.532;7.684;2022-12-11T04:17:35;99887.75;;;-0.11;95.38
70468;BME280;57934;51.532;7.684;2022-12-11T04:20:20;99892.81;;;-0.10;95.43
70468;BME280;57934;51.532;7.684;2022-12-11T04:23:10;99893.34;;;-0.06;95.52
70468;BME280;57934;51.532;7.684;2022-12-11T04:26:10;99903.72;;;-0.06;95.28
70468;BME280;57934;51.532;7.684;2022-12-11T04:28:37;99899.63;;;-0.09;95.52
70468;BME280;57934;51.532;7.684;2022-12-11T04:31:03;99896.88;;;-0.07;95.34
70468;BME280;57934;51.532;7.684;2022-12-11T04:33:29;99893.34;;;-0.06;95.63
70468;BME280;57934;51.532;7.684;2022-12-11T04:35:59;99896.88;;;-0.07;95.50
70468;BME280;57934;51.532;7.684;2022-12-11T04:38:25;99898.91;;;-0.11;95.56
70468;BME280;57934;51.532;7.684;2022-12-11T04:41:04;99899.88;;;-0.12;95.47
70468;BME280;57934;51.532;7.684;2022-12-11T04:43:31;99902.34;;;-0.10;95.68
70468;BME280;57934;51.532;7.684;2022-12-11T04:46:13;99896.59;;;-0.04;95.50
70468;BME280;57934;51.532;7.684;2022-12-11T04:48:40;99892.25;;;-0.04;95.53
70468;BME280;57934;51.532;7.684;2022-12-11T04:51:06;99890.75;;;-0.06;95.74
70468;BME280;57934;51.532;7.684;2022-12-11T04:53:33;99891.16;;;-0.01;95.94
70468;BME280;57934;51.532;7.684;2022-12-11T04:55:59;99881.47;;;-0.09;95.44
70468;BME280;57934;51.532;7.684;2022-12-11T04:58:25;99886.38;;;-0.15;95.86
70468;BME280;57934;51.532;7.684;2022-12-11T05:00:52;99889.50;;;-0.21;95.98
70468;BME280;57934;51.532;7.684;2022-12-11T05:03:18;99887.44;;;-0.18;95.98
70468;BME280;57934;51.532;7.684;2022-12-11T05:05:49;99887.34;;;-0.16;96.15
70468;BME280;57934;51.532;7.684;2022-12-11T05:08:17;99886.25;;;-0.14;96.63
70468;BME280;57934;51.532;7.684;2022-12-11T05:10:43;99888.69;;;-0.12;96.57
70468;BME280;57934;51.532;7.684;2022-12-11T05:13:09;99887.88;;;-0.13;96.69
70468;BME280;57934;51.532;7.684;2022-12-11T05:15:38;99886.09;;;-0.12;96.54
70468;BME280;57934;51.532;7.684;2022-12-11T05:18:05;99887.88;;;-0.22;96.75
70468;BME280;57934;51.532;7.684;2022-12-11T05:20:31;99887.75;;;-0.21;97.19
70468;BME280;57934;51.532;7.684;2022-12-11T05:22:57;99882.41;;;-0.29;97.46
70468;BME280;57934;51.532;7.684;2022-12-11T05:25:23;99887.28;;;-0.36;97.72
70468;BME280;57934;51.532;7.684;2022-12-11T05:27:49;99884.56;;;-0.34;97.83
70468;BME280;57934;51.532;7.684;2022-12-11T05:30:15;99879.25;;;-0.33;98.23
70468;BME280;57934;51.532;7.684;2022-12-11T05:32:41;99881.28;;;-0.36;98.15
70468;BME280;57934;51.532;7.684;2022-12-11T05:35:07;99887.28;;;-0.36;98.62
70468;BME280;57934;51.532;7.684;2022-12-11T05:37:33;99885.50;;;-0.35;98.60
70468;BME280;57934;51.532;7.684;2022-12-11T05:39:59;99883.63;;;-0.33;99.37
70468;BME280;57934;51.532;7.684;2022-12-11T05:42:25;99883.75;;;-0.35;99.53
70468;BME280;57934;51.532;7.684;2022-12-11T05:44:51;99874.22;;;-0.34;99.24
70468;BME280;57934;51.532;7.684;2022-12-11T05:47:17;99871.38;;;-0.31;99.40
70468;BME280;57934;51.532;7.684;2022-12-11T05:49:45;99870.53;;;-0.32;99.58
70468;BME280;57934;51.532;7.684;2022-12-11T05:52:12;99875.59;;;-0.30;99.70
70468;BME280;57934;51.532;7.684;2022-12-11T05:54:38;99879.41;;;-0.34;99.54
70468;BME280;57934;51.532;7.684;2022-12-11T05:57:04;99869.03;;;-0.34;99.87
70468;BME280;57934;51.532;7.684;2022-12-11T05:59:30;99868.88;;;-0.33;100.00
70468;BME280;57934;51.532;7.684;2022-12-11T06:01:56;99863.72;;;-0.33;99.72
70468;BME280;57934;51.532;7.684;2022-12-11T06:04:22;99865.34;;;-0.32;99.98
70468;BME280;57934;51.532;7.684;2022-12-11T06:06:48;99874.78;;;-0.31;99.78
70468;BME280;57934;51.532;7.684;2022-12-11T06:09:15;99872.84;;;-0.29;99.93
70468;BME280;57934;51.532;7.684;2022-12-11T06:11:41;99871.78;;;-0.26;100.00
70468;BME280;57934;51.532;7.684;2022-12-11T06:14:09;99866.75;;;-0.28;100.00
70468;BME280;57934;51.532;7.684;2022-12-11T06:16:35;99870.13;;;-0.27;100.00
70468;BME280;57934;51.532;7.684;2022-12-11T06:19:01;99860.47;;;-0.35;99.71
70468;BME280;57934;51.532;7.684;2022-12-11T06:21:31;99868.34;;;-0.36;99.66
70468;BME280;57934;51.532;7.684;2022-12-11T06:24:01;99856.47;;;-0.39;100.00
70468;BME280;57934;51.532;7.684;2022-12-11T06:26:28;99855.91;;;-0.42;100.00
70468;BME280;57934;51.532;7.684;2022-12-11T06:28:53;99845.69;;;-0.44;99.99
70468;BME280;57934;51.532;7.684;2022-12-11T06:31:20;99853.75;;;-0.37;99.53
70468;BME280;57934;51.532;7.684;2022-12-11T06:33:46;99852.81;;;-0.36;99.97
70468;BME280;57934;51.532;7.684;2022-12-11T06:36:18;99851.03;;;-0.36;99.67
70468;BME280;57934;51.532;7.684;2022-12-11T06:38:44;99855.81;;;-0.41;99.33
70468;BME280;57934;51.532;7.684;2022-12-11T06:41:11;99845.56;;;-0.42;99.87
70468;BME280;57934;51.532;7.684;2022-12-11T06:43:38;99857.97;;;-0.36;100.00
70468;BME280;57934;51.532;7.684;2022-12-11T06:46:10;99856.75;;;-0.32;99.68
70468;BME280;57934;51.532;7.684;2022-12-11T06:48:37;99854.97;;;-0.32;99.67
70468;BME280;57934;51.532;7.684;2022-12-11T06:51:10;99850.66;;;-0.31;99.63
70468;BME280;57934;51.532;7.684;2022-12-11T06:53:37;99855.41;;;-0.27;99.72
70468;BME280;57934;51.532;7.684;2022-12-11T06:56:07;99854.44;;;-0.26;99.14
70468;BME280;57934;51.532;7.684;2022-12-11T06:58:34;99850.94;;;-0.25;99.63
70468;BME280;57934;51.532;7.684;2022-12-11T07:01:01;99858.13;;;-0.18;99.52
70468;BME280;57934;51.532;7.684;2022-12-11T07:03:27;99864.03;;;-0.16;99.60
70468;BME280;57934;51.532;7.684;2022-12-11T07:05:59;99860.88;;;-0.20;98.83
70468;BME280;57934;51.532;7.684;2022-12-11T07:08:27;99864.44;;;-0.21;98.95
70468;BME280;57934;51.532;7.684;2022-12-11T07:10:53;99863.72;;;-0.23;98.85
70468;BME280;57934;51.532;7.684;2022-12-11T07:13:19;99869.06;;;-0.25;99.25
70468;BME280;57934;51.532;7.684;2022-12-11T07:15:45;99869.06;;;-0.25;99.31
70468;BME280;57934;51.532;7.684;2022-12-11T07:18:11;99868.78;;;-0.21;99.09
70468;BME280;57934;51.532;7.684;2022-12-11T07:20:37;99867.84;;;-0.20;98.62
70468;BME280;57934;51.532;7.684;2022-12-11T07:23:03;99871.34;;;-0.21;98.79
70468;BME280;57934;51.532;7.684;2022-12-11T07:25:29;99873.41;;;-0.25;99.14
70468;BME280;57934;51.532;7.684;2022-12-11T07:27:55;99863.44;;;-0.30;99.08
70468;BME280;57934;51.532;7.684;2022-12-11T07:30:21;99864.00;;;-0.26;99.09
70468;BME280;57934;51.532;7.684;2022-12-11T07:32:47;99861.81;;;-0.31;98.94
70468;BME280;57934;51.532;7.684;2022-12-11T07:35:13;99866.03;;;-0.30;98.85
70468;BME280;57934;51.532;7.684;2022-12-11T07:37:40;99858.00;;;-0.27;99.38
70468;BME280;57934;51.532;7.684;2022-12-11T07:40:06;99862.66;;;-0.20;98.86
70468;BME280;57934;51.532;7.684;2022-12-11T07:42:32;99868.50;;;-0.18;99.00
70468;BME280;57934;51.532;7.684;2022-12-11T07:44:58;99862.25;;;-0.16;98.75
70468;BME280;57934;51.532;7.684;2022-12-11T07:47:24;99869.19;;;-0.16;98.76
70468;BME280;57934;51.532;7.684;2022-12-11T07:49:50;99871.78;;;-0.16;98.50
70468;BME280;57934;51.532;7.684;2022-12-11T07:52:16;99873.84;;;-0.20;98.08
70468;BME280;57934;51.532;7.684;2022-12-11T07:54:42;99871.25;;;-0.20;98.21
70468;BME280;57934;51.532;7.684;2022-12-11T07:57:08;99868.38;;;-0.17;97.95
70468;BME280;57934;51.532;7.684;2022-12-11T07:59:34;99872.34;;;-0.13;98.40
70468;BME280;57934;51.532;7.684;2022-12-11T08:02:00;99873.84;;;-0.10;97.98
70468;BME280;57934;51.532;7.684;2022-12-11T08:04:26;99869.34;;;-0.08;98.16
70468;BME280;57934;51.532;7.684;2022-12-11T08:06:52;99876.84;;;-0.05;98.03
70468;BME280;57934;51.532;7.684;2022-12-11T08:09:18;99878.63;;;-0.06;97.63
70468;BME280;57934;51.532;7.684;2022-12-11T08:11:48;99874.50;;;-0.08;97.54
70468;BME280;57934;51.532;7.684;2022-12-11T08:14:15;99869.22;;;-0.07;97.20
70468;BME280;57934;51.532;7.684;2022-12-11T08:16:41;99875.88;;;-0.04;97.09
70468;BME280;57934;51.532;7.684;2022-12-11T08:19:10;99872.63;;;-0.06;96.86
70468;BME280;57934;51.532;7.684;2022-12-11T08:21:37;99868.09;;;-0.04;96.96
70468;BME280;57934;51.532;7.684;2022-12-11T08:24:03;99864.31;;;0.00;96.92
70468;BME280;57934;51.532;7.684;2022-12-11T08:26:29;99876.03;;;0.04;96.25
70468;BME280;57934;51.532;7.684;2022-12-11T08:28:59;99881.50;;;0.01;96.16
70468;BME280;57934;51.532;7.684;2022-12-11T08:31:26;99880.94;;;-0.03;95.62
70468;BME280;57934;51.532;7.684;2022-12-11T08:33:54;99881.75;;;-0.02;95.35
70468;BME280;57934;51.532;7.684;2022-12-11T08:36:21;99881.75;;;-0.02;95.42
70468;BME280;57934;51.532;7.684;2022-12-11T08:38:49;99878.22;;;-0.01;95.31
70468;BME280;57934;51.532;7.684;2022-12-11T08:41:20;99878.09;;;0.01;95.16
70468;BME280;57934;51.532;7.684;2022-12-11T08:43:49;99882.56;;;-0.02;94.87
70468;BME280;57934;51.532;7.684;2022-12-11T08:46:21;99874.94;;;-0.03;94.53
70468;BME280;57934;51.532;7.684;2022-12-11T08:48:48;99875.88;;;-0.04;94.47
70468;BME280;57934;51.532;7.684;2022-12-11T08:51:17;99873.03;;;-0.01;94.19
70468;BME280;57934;51.532;7.684;2022-12-11T08:53:43;99871.78;;;0.03;94.46
70468;BME280;57934;51.532;7.684;2022-12-11T08:56:13;99870.16;;;0.02;94.08
70468;BME280;57934;51.532;7.684;2022-12-11T08:58:40;99871.94;;;0.02;94.25
70468;BME280;57934;51.532;7.684;2022-12-11T09:01:08;99868.53;;;0.01;93.30
70468;BME280;57934;51.532;7.684;2022-12-11T09:03:35;99872.91;;;0.01;93.13
70468;BME280;57934;51.532;7.684;2022-12-11T09:06:06;99871.53;;;0.06;92.68
70468;BME280;57934;51.532;7.684;2022-12-11T09:08:33;99869.91;;;0.05;91.88
70468;BME280;57934;51.532;7.684;2022-12-11T09:11:11;99869.09;;;0.05;91.21
70468;BME280;57934;51.532;7.684;2022-12-11T09:13:38;99862.53;;;0.10;90.76
70468;BME280;57934;51.532;7.684;2022-12-11T09:16:06;99871.25;;;0.09;90.30
70468;BME280;57934;51.532;7.684;2022-12-11T09:18:32;99872.88;;;0.10;90.16
70468;BME280;57934;51.532;7.684;2022-12-11T09:21:04;99871.25;;;0.09;89.79
70468;BME280;57934;51.532;7.684;2022-12-11T09:23:30;99867.16;;;0.07;89.88
70468;BME280;57934;51.532;7.684;2022-12-11T09:25:56;99865.00;;;0.12;89.87
70468;BME280;57934;51.532;7.684;2022-12-11T09:28:23;99868.13;;;0.15;89.72
70468;BME280;57934;51.532;7.684;2022-12-11T09:30:49;99867.59;;;0.21;89.43
70468;BME280;57934;51.532;7.684;2022-12-11T09:33:15;99866.19;;;0.27;89.53
70468;BME280;57934;51.532;7.684;2022-12-11T09:35:41;99866.47;;;0.34;89.65
70468;BME280;57934;51.532;7.684;2022-12-11T09:38:08;99867.28;;;0.34;88.94
70468;BME280;57934;51.532;7.684;2022-12-11T09:40:42;99870.44;;;0.38;88.74
70468;BME280;57934;51.532;7.684;2022-12-11T09:46:13;99869.06;;;0.34;87.84
70468;BME280;57934;51.532;7.684;2022-12-11T09:48:49;99868.09;;;0.35;88.21
70468;BME280;57934;51.532;7.684;2022-12-11T09:51:23;99867.03;;;0.37;88.09
70468;BME280;57934;51.532;7.684;2022-12-11T09:53:53;99854.47;;;0.42;88.37
70468;BME280;57934;51.532;7.684;2022-12-11T09:56:24;99855.81;;;0.46;88.11
70468;BME280;57934;51.532;7.684;2022-12-11T10:06:49;99855.78;;;0.66;88.44
70468;BME280;57934;51.532;7.684;2022-12-11T10:09:25;99858.66;;;0.63;88.32
70468;BME280;57934;51.532;7.684;2022-12-11T10:15:02;99851.28;;;0.58;87.34
70468;BME280;57934;51.532;7.684;2022-12-11T10:17:33;99846.38;;;0.55;87.73
70468;BME280;57934;51.532;7.684;2022-12-11T10:20:16;99842.28;;;0.53;87.31
70468;BME280;57934;51.532;7.684;2022-12-11T10:22:43;99845.44;;;0.56;87.45
70468;BME280;57934;51.532;7.684;2022-12-11T10:25:20;99847.47;;;0.62;87.12
70468;BME280;57934;51.532;7.684;2022-12-11T10:27:46;99857.84;;;0.62;86.98
70468;BME280;57934;51.532;7.684;2022-12-11T10:30:19;99851.00;;;0.61;87.04
70468;BME280;57934;51.532;7.684;2022-12-11T10:35:50;99848.69;;;0.58;86.29
70468;BME280;57934;51.532;7.684;2022-12-11T10:38:51;99845.28;;;0.58;86.18
70468;BME280;57934;51.532;7.684;2022-12-11T10:41:23;99841.88;;;0.67;85.96
70468;BME280;57934;51.532;7.684;2022-12-11T10:43:51;99842.00;;;0.65;85.36
70468;BME280;57934;51.532;7.684;2022-12-11T10:46:25;99844.16;;;0.70;85.65
70468;BME280;57934;51.532;7.684;2022-12-11T10:48:56;99836.69;;;0.67;85.95
70468;BME280;57934;51.532;7.684;2022-12-11T10:54:51;99834.47;;;0.62;85.87
70468;BME280;57934;51.532;7.684;2022-12-11T10:56:47;99830.25;;;0.61;85.62
70468;BME280;57934;51.532;7.684;2022-12-11T10:59:22;99832.72;;;0.63;85.63
70468;BME280;57934;51.532;7.684;2022-12-11T11:01:49;99823.44;;;0.60;85.55
70468;BME280;57934;51.532;7.684;2022-12-11T11:04:30;99823.72;;;0.57;84.99
70468;BME280;57934;51.532;7.684;2022-12-11T11:07:11;99827.25;;;0.66;84.51
70468;BME280;57934;51.532;7.684;2022-12-11T11:09:38;99821.22;;;0.65;84.50
70468;BME280;57934;51.532;7.684;2022-12-11T11:14:42;99826.44;;;0.65;83.85
70468;BME280;57934;51.532;7.684;2022-12-11T11:17:14;99817.41;;;0.69;83.72
70468;BME280;57934;51.532;7.684;2022-12-11T11:19:45;99819.88;;;0.71;83.77
70468;BME280;57934;51.532;7.684;2022-12-11T11:22:14;99813.72;;;0.72;84.45
70468;BME280;57934;51.532;7.684;2022-12-11T11:27:32;99814.09;;;0.77;84.37
70468;BME280;57934;51.532;7.684;2022-12-11T11:30:03;99806.75;;;0.73;83.91
70468;BME280;57934;51.532;7.684;2022-12-11T11:32:33;99818.63;;;0.75;84.02
70468;BME280;57934;51.532;7.684;2022-12-11T11:35:16;99814.16;;;0.58;83.94
70468;BME280;57934;51.532;7.684;2022-12-11T11:37:46;99817.72;;;0.57;84.22
70468;BME280;57934;51.532;7.684;2022-12-11T11:40:18;99809.41;;;0.53;84.39
70468;BME280;57934;51.532;7.684;2022-12-11T11:48:26;99809.00;;;0.48;85.42
70468;BME280;57934;51.532;7.684;2022-12-11T11:50:55;99814.72;;;0.52;85.85
70468;BME280;57934;51.532;7.684;2022-12-11T11:53:33;99809.00;;;0.48;85.62
70468;BME280;57934;51.532;7.684;2022-12-11T12:02:12;99810.63;;;0.49;85.72
70468;BME280;57934;51.532;7.684;2022-12-11T12:04:39;99805.97;;;0.53;86.18
70468;BME280;57934;51.532;7.684;2022-12-11T12:07:28;99806.41;;;0.48;85.64
70468;BME280;57934;51.532;7.684;2022-12-11T12:10:09;99811.31;;;0.41;85.63
70468;BME280;57934;51.532;7.684;2022-12-11T12:15:48;99797.81;;;0.38;86.01
70468;BME280;57934;51.532;7.684;2022-12-11T12:24:33;99804.94;;;0.26;85.06
70468;BME280;57934;51.532;7.684;2022-12-11T12:29:58;99795.53;;;0.25;85.14
70468;BME280;57934;51.532;7.684;2022-12-11T12:35:36;99786.66;;;0.28;85.57
70468;BME280;57934;51.532;7.684;2022-12-11T12:41:16;99765.63;;;0.40;85.11
70468;BME280;57934;51.532;7.684;2022-12-11T12:44:14;99776.69;;;0.42;84.58
70468;BME280;57934;51.532;7.684;2022-12-11T12:47:10;99771.63;;;0.41;84.70
70468;BME280;57934;51.532;7.684;2022-12-11T12:49:41;99777.22;;;0.46;84.82
70468;BME280;57934;51.532;7.684;2022-12-11T12:52:32;99769.53;;;0.54;84.81
70468;BME280;57934;51.532;7.684;2022-12-11T12:57:47;99780.34;;;0.50;84.95
70468;BME280;57934;51.532;7.684;2022-12-11T13:03:18;99780.03;;;0.53;84.97
70468;BME280;57934;51.532;7.684;2022-12-11T13:08:33;99776.09;;;0.48;84.64
70468;BME280;57934;51.532;7.684;2022-12-11T13:11:05;99780.75;;;0.45;84.49
70468;BME280;57934;51.532;7.684;2022-12-11T13:13:41;99775.03;;;0.41;84.62
70468;BME280;57934;51.532;7.684;2022-12-11T13:18:44;99773.94;;;0.44;84.32
70468;BME280;57934;51.532;7.684;2022-12-11T13:23:52;99767.28;;;0.32;84.22
70468;BME280;57934;51.532;7.684;2022-12-11T13:26:30;99764.97;;;0.29;84.30
70468;BME280;57934;51.532;7.684;2022-12-11T13:28:56;99768.09;;;0.32;84.76
70468;BME280;57934;51.532;7.684;2022-12-11T13:31:31;99760.97;;;0.34;84.97
70468;BME280;57934;51.532;7.684;2022-12-11T13:34:07;99769.19;;;0.39;85.20
70468;BME280;57934;51.532;7.684;2022-12-11T13:36:38;99770.25;;;0.37;84.34
70468;BME280;57934;51.532;7.684;2022-12-11T13:39:21;99772.69;;;0.38;84.31
70468;BME280;57934;51.532;7.684;2022-12-11T13:41:56;99766.03;;;0.36;84.13
70468;BME280;57934;51.532;7.684;2022-12-11T13:44:38;99766.59;;;0.39;84.42
70468;BME280;57934;51.532;7.684;2022-12-11T13:47:11;99777.88;;;0.38;84.47
70468;BME280;57934;51.532;7.684;2022-12-11T13:49:41;99770.41;;;0.35;84.89
70468;BME280;57934;51.532;7.684;2022-12-11T13:52:19;99769.44;;;0.36;84.86
70468;BME280;57934;51.532;7.684;2022-12-11T13:54:50;99766.72;;;0.38;85.09
70468;BME280;57934;51.532;7.684;2022-12-11T13:57:22;99766.84;;;0.36;84.86
70468;BME280;57934;51.532;7.684;2022-12-11T13:59:58;99770.69;;;0.32;85.03
70468;BME280;57934;51.532;7.684;2022-12-11T14:02:32;99771.22;;;0.36;84.81
70468;BME280;57934;51.532;7.684;2022-12-11T14:05:02;99772.84;;;0.37;85.05
70468;BME280;57934;51.532;7.684;2022-12-11T14:07:34;99783.63;;;0.42;85.29
70468;BME280;57934;51.532;7.684;2022-12-11T14:10:12;99778.84;;;0.47;85.04
70468;BME280;57934;51.532;7.684;2022-12-11T14:12:59;99781.28;;;0.48;84.82
70468;BME280;57934;51.532;7.684;2022-12-11T14:15:28;99770.38;;;0.45;85.22
70468;BME280;57934;51.532;7.684;2022-12-11T14:17:55;99778.84;;;0.47;85.19
70468;BME280;57934;51.532;7.684;2022-12-11T14:20:25;99772.03;;;0.46;85.30
70468;BME280;57934;51.532;7.684;2022-12-11T14:23:07;99773.66;;;0.47;85.39
70468;BME280;57934;51.532;7.684;2022-12-11T14:25:34;99776.53;;;0.44;85.18
70468;BME280;57934;51.532;7.684;2022-12-11T14:28:00;99772.59;;;0.40;85.09
70468;BME280;57934;51.532;7.684;2022-12-11T14:30:29;99782.94;;;0.40;85.44
70468;BME280;57934;51.532;7.684;2022-12-11T14:32:59;99778.72;;;0.39;85.49
70468;BME280;57934;51.532;7.684;2022-12-11T14:35:31;99778.31;;;0.34;85.29
70468;BME280;57934;51.532;7.684;2022-12-11T14:38:01;99785.56;;;0.30;85.17
70468;BME280;57934;51.532;7.684;2022-12-11T14:40:37;99784.22;;;0.26;84.83